sensor_id;sensor_type;location;lat;lon;timestamp;P1;durP1;ratioP1;P2;durP2;ratioP2
10174;SDS011;18221;38.704;0.152;2023-12-20T00:01:15;3.53;;;2.70;;
10174;SDS011;18221;38.704;0.152;2023-12-20T00:03:43;6.43;;;3.20;;
10174;SDS011;18221;38.704;0.152;2023-12-20T00:06:11;4.10;;;2.43;;
10174;SDS011;18221;38.704;0.152;2023-12-20T00:08:39;3.80;;;2.50;;
10174;SDS011;18221;38.704;0.152;2023-12-20T00:11:08;6.23;;;2.57;;
10174;SDS011;18221;38.704;0.152;2023-12-20T00:13:36;2.57;;;2.30;;
10174;SDS011;18221;38.704;0.152;2023-12-20T00:16:04;4.47;;;2.50;;
10174;SDS011;18221;38.704;0.152;2023-12-20T00:18:32;4.07;;;2.60;;
10174;SDS011;18221;38.704;0.152;2023-12-20T00:21:00;3.07;;;2.30;;
10174;SDS011;18221;38.704;0.152;2023-12-20T00:23:29;3.33;;;2.70;;
10174;SDS011;18221;38.704;0.152;2023-12-20T00:25:57;5.27;;;2.80;;
10174;SDS011;18221;38.704;0.152;2023-12-20T00:28:27;3.47;;;2.40;;
10174;SDS011;18221;38.704;0.152;2023-12-20T00:30:55;3.30;;;2.33;;
10174;SDS011;18221;38.704;0.152;2023-12-20T00:33:23;4.03;;;2.63;;
10174;SDS011;18221;38.704;0.152;2023-12-20T00:35:51;3.23;;;2.77;;
10174;SDS011;18221;38.704;0.152;2023-12-20T00:38:19;6.23;;;2.40;;
10174;SDS011;18221;38.704;0.152;2023-12-20T00:40:47;3.60;;;2.50;;
10174;SDS011;18221;38.704;0.152;2023-12-20T00:43:16;4.07;;;2.30;;
10174;SDS011;18221;38.704;0.152;2023-12-20T00:45:45;2.33;;;2.13;;
10174;SDS011;18221;38.704;0.152;2023-12-20T00:48:13;3.50;;;2.53;;
10174;SDS011;18221;38.704;0.152;2023-12-20T01:03:46;3.20;;;2.37;;
10174;SDS011;18221;38.704;0.152;2023-12-20T01:06:16;4.13;;;2.00;;
10174;SDS011;18221;38.704;0.152;2023-12-20T01:08:44;2.33;;;1.90;;
10174;SDS011;18221;38.704;0.152;2023-12-20T01:11:12;2.93;;;2.20;;
10174;SDS011;18221;38.704;0.152;2023-12-20T01:13:41;4.37;;;2.10;;
10174;SDS011;18221;38.704;0.152;2023-12-20T01:16:10;3.47;;;1.97;;
10174;SDS011;18221;38.704;0.152;2023-12-20T01:18:38;3.50;;;1.93;;
10174;SDS011;18221;38.704;0.152;2023-12-20T01:21:08;3.27;;;1.87;;
10174;SDS011;18221;38.704;0.152;2023-12-20T01:23:36;2.93;;;1.50;;
10174;SDS011;18221;38.704;0.152;2023-12-20T01:26:04;2.10;;;1.67;;
10174;SDS011;18221;38.704;0.152;2023-12-20T01:28:32;1.93;;;1.73;;
10174;SDS011;18221;38.704;0.152;2023-12-20T01:31:00;2.60;;;1.60;;
10174;SDS011;18221;38.704;0.152;2023-12-20T01:33:31;2.20;;;1.90;;
10174;SDS011;18221;38.704;0.152;2023-12-20T01:35:59;2.23;;;1.60;;
10174;SDS011;18221;38.704;0.152;2023-12-20T01:38:29;1.47;;;1.37;;
10174;SDS011;18221;38.704;0.152;2023-12-20T01:40:57;1.87;;;1.40;;
10174;SDS011;18221;38.704;0.152;2023-12-20T01:43:25;1.60;;;1.50;;
10174;SDS011;18221;38.704;0.152;2023-12-20T01:45:54;4.00;;;1.50;;
10174;SDS011;18221;38.704;0.152;2023-12-20T01:48:23;1.80;;;1.43;;
10174;SDS011;18221;38.704;0.152;2023-12-20T01:50:53;1.40;;;1.30;;
10174;SDS011;18221;38.704;0.152;2023-12-20T01:53:23;1.63;;;1.40;;
10174;SDS011;18221;38.704;0.152;2023-12-20T01:55:56;1.20;;;1.10;;
10174;SDS011;18221;38.704;0.152;2023-12-20T01:58:26;2.47;;;1.37;;
10174;SDS011;18221;38.704;0.152;2023-12-20T02:00:56;1.33;;;1.23;;
10174;SDS011;18221;38.704;0.152;2023-12-20T02:03:25;2.67;;;1.47;;
10174;SDS011;18221;38.704;0.152;2023-12-20T02:05:53;3.17;;;1.37;;
10174;SDS011;18221;38.704;0.152;2023-12-20T02:08:22;2.10;;;1.30;;
10174;SDS011;18221;38.704;0.152;2023-12-20T02:10:50;2.30;;;1.50;;
10174;SDS011;18221;38.704;0.152;2023-12-20T02:13:20;1.40;;;1.30;;
10174;SDS011;18221;38.704;0.152;2023-12-20T02:15:48;2.50;;;1.63;;
10174;SDS011;18221;38.704;0.152;2023-12-20T02:18:16;1.80;;;1.50;;
10174;SDS011;18221;38.704;0.152;2023-12-20T02:20:44;1.47;;;1.37;;
10174;SDS011;18221;38.704;0.152;2023-12-20T02:23:14;1.50;;;1.40;;
10174;SDS011;18221;38.704;0.152;2023-12-20T02:25:42;1.43;;;1.33;;
10174;SDS011;18221;38.704;0.152;2023-12-20T02:28:10;1.33;;;1.23;;
10174;SDS011;18221;38.704;0.152;2023-12-20T02:30:38;1.60;;;1.37;;
10174;SDS011;18221;38.704;0.152;2023-12-20T02:33:07;1.40;;;1.30;;
10174;SDS011;18221;38.704;0.152;2023-12-20T02:35:38;2.30;;;1.80;;
10174;SDS011;18221;38.704;0.152;2023-12-20T02:38:06;1.53;;;1.43;;
10174;SDS011;18221;38.704;0.152;2023-12-20T02:40:38;1.93;;;1.70;;
10174;SDS011;18221;38.704;0.152;2023-12-20T02:43:06;1.60;;;1.50;;
10174;SDS011;18221;38.704;0.152;2023-12-20T02:45:34;2.10;;;1.40;;
10174;SDS011;18221;38.704;0.152;2023-12-20T02:48:02;1.53;;;1.43;;
10174;SDS011;18221;38.704;0.152;2023-12-20T02:50:30;2.73;;;1.50;;
10174;SDS011;18221;38.704;0.152;2023-12-20T02:52:58;1.60;;;1.50;;
10174;SDS011;18221;38.704;0.152;2023-12-20T02:55:27;1.93;;;1.60;;
10174;SDS011;18221;38.704;0.152;2023-12-20T02:57:56;1.87;;;1.67;;
10174;SDS011;18221;38.704;0.152;2023-12-20T03:00:24;1.90;;;1.70;;
10174;SDS011;18221;38.704;0.152;2023-12-20T03:02:52;2.00;;;1.60;;
10174;SDS011;18221;38.704;0.152;2023-12-20T03:05:20;1.60;;;1.37;;
10174;SDS011;18221;38.704;0.152;2023-12-20T03:07:48;1.77;;;1.67;;
10174;SDS011;18221;38.704;0.152;2023-12-20T03:10:17;1.70;;;1.60;;
10174;SDS011;18221;38.704;0.152;2023-12-20T03:12:46;2.70;;;1.87;;
10174;SDS011;18221;38.704;0.152;2023-12-20T03:15:15;2.07;;;1.87;;
10174;SDS011;18221;38.704;0.152;2023-12-20T03:17:43;1.63;;;1.50;;
10174;SDS011;18221;38.704;0.152;2023-12-20T03:20:11;2.00;;;1.70;;
10174;SDS011;18221;38.704;0.152;2023-12-20T03:22:48;1.70;;;1.50;;
10174;SDS011;18221;38.704;0.152;2023-12-20T03:25:21;1.70;;;1.50;;
10174;SDS011;18221;38.704;0.152;2023-12-20T03:27:49;1.87;;;1.60;;
10174;SDS011;18221;38.704;0.152;2023-12-20T03:30:18;1.97;;;1.73;;
10174;SDS011;18221;38.704;0.152;2023-12-20T03:32:46;1.97;;;1.50;;
10174;SDS011;18221;38.704;0.152;2023-12-20T03:35:14;2.67;;;1.80;;
10174;SDS011;18221;38.704;0.152;2023-12-20T03:37:42;3.23;;;1.70;;
10174;SDS011;18221;38.704;0.152;2023-12-20T03:40:10;1.83;;;1.60;;
10174;SDS011;18221;38.704;0.152;2023-12-20T03:42:38;1.93;;;1.70;;
10174;SDS011;18221;38.704;0.152;2023-12-20T03:45:06;3.60;;;1.77;;
10174;SDS011;18221;38.704;0.152;2023-12-20T03:47:37;3.13;;;1.80;;
10174;SDS011;18221;38.704;0.152;2023-12-20T03:50:06;2.30;;;1.60;;
10174;SDS011;18221;38.704;0.152;2023-12-20T03:52:34;1.73;;;1.63;;
10174;SDS011;18221;38.704;0.152;2023-12-20T03:55:03;2.20;;;1.70;;
10174;SDS011;18221;38.704;0.152;2023-12-20T03:57:32;2.20;;;1.70;;
10174;SDS011;18221;38.704;0.152;2023-12-20T04:00:00;2.13;;;1.70;;
10174;SDS011;18221;38.704;0.152;2023-12-20T04:02:28;2.03;;;1.80;;
10174;SDS011;18221;38.704;0.152;2023-12-20T04:04:57;2.20;;;1.60;;
10174;SDS011;18221;38.704;0.152;2023-12-20T04:07:26;2.33;;;1.80;;
10174;SDS011;18221;38.704;0.152;2023-12-20T04:09:55;1.97;;;1.57;;
10174;SDS011;18221;38.704;0.152;2023-12-20T04:12:22;2.23;;;1.90;;
10174;SDS011;18221;38.704;0.152;2023-12-20T04:14:51;1.90;;;1.70;;
10174;SDS011;18221;38.704;0.152;2023-12-20T04:17:19;2.50;;;1.80;;
10174;SDS011;18221;38.704;0.152;2023-12-20T04:19:48;1.90;;;1.70;;
10174;SDS011;18221;38.704;0.152;2023-12-20T04:22:18;2.53;;;1.80;;
10174;SDS011;18221;38.704;0.152;2023-12-20T04:24:48;2.10;;;1.70;;
10174;SDS011;18221;38.704;0.152;2023-12-20T04:27:16;2.17;;;1.70;;
10174;SDS011;18221;38.704;0.152;2023-12-20T04:29:43;1.83;;;1.60;;
10174;SDS011;18221;38.704;0.152;2023-12-20T04:32:11;1.60;;;1.50;;
10174;SDS011;18221;38.704;0.152;2023-12-20T04:34:39;2.17;;;1.67;;
10174;SDS011;18221;38.704;0.152;2023-12-20T04:37:07;1.60;;;1.50;;
10174;SDS011;18221;38.704;0.152;2023-12-20T04:39:36;1.93;;;1.73;;
10174;SDS011;18221;38.704;0.152;2023-12-20T04:42:07;2.53;;;1.80;;
10174;SDS011;18221;38.704;0.152;2023-12-20T04:44:35;1.93;;;1.73;;
10174;SDS011;18221;38.704;0.152;2023-12-20T04:47:04;2.03;;;1.83;;
10174;SDS011;18221;38.704;0.152;2023-12-20T04:49:32;2.97;;;1.90;;
10174;SDS011;18221;38.704;0.152;2023-12-20T04:51:59;1.60;;;1.50;;
10174;SDS011;18221;38.704;0.152;2023-12-20T04:54:27;1.90;;;1.50;;
10174;SDS011;18221;38.704;0.152;2023-12-20T04:56:57;1.70;;;1.60;;
10174;SDS011;18221;38.704;0.152;2023-12-20T04:59:24;1.70;;;1.60;;
10174;SDS011;18221;38.704;0.152;2023-12-20T05:01:52;2.23;;;1.60;;
10174;SDS011;18221;38.704;0.152;2023-12-20T05:04:21;1.90;;;1.60;;
10174;SDS011;18221;38.704;0.152;2023-12-20T05:06:49;2.03;;;1.70;;
10174;SDS011;18221;38.704;0.152;2023-12-20T05:09:17;2.53;;;1.60;;
10174;SDS011;18221;38.704;0.152;2023-12-20T05:11:45;2.00;;;1.80;;
10174;SDS011;18221;38.704;0.152;2023-12-20T05:14:14;2.10;;;1.70;;
10174;SDS011;18221;38.704;0.152;2023-12-20T05:16:42;2.37;;;1.80;;
10174;SDS011;18221;38.704;0.152;2023-12-20T05:19:10;3.70;;;1.50;;
10174;SDS011;18221;38.704;0.152;2023-12-20T05:21:39;2.10;;;1.53;;
10174;SDS011;18221;38.704;0.152;2023-12-20T05:24:07;1.90;;;1.70;;
10174;SDS011;18221;38.704;0.152;2023-12-20T05:26:35;2.40;;;1.57;;
10174;SDS011;18221;38.704;0.152;2023-12-20T05:29:03;2.23;;;1.60;;
10174;SDS011;18221;38.704;0.152;2023-12-20T05:31:33;1.77;;;1.60;;
10174;SDS011;18221;38.704;0.152;2023-12-20T05:34:01;1.70;;;1.60;;
10174;SDS011;18221;38.704;0.152;2023-12-20T05:36:29;1.93;;;1.60;;
10174;SDS011;18221;38.704;0.152;2023-12-20T05:38:57;2.57;;;1.70;;
10174;SDS011;18221;38.704;0.152;2023-12-20T05:41:27;2.43;;;1.83;;
10174;SDS011;18221;38.704;0.152;2023-12-20T05:43:54;2.40;;;1.90;;
10174;SDS011;18221;38.704;0.152;2023-12-20T05:46:23;2.43;;;2.10;;
10174;SDS011;18221;38.704;0.152;2023-12-20T05:48:52;1.73;;;1.63;;
10174;SDS011;18221;38.704;0.152;2023-12-20T05:51:20;2.13;;;1.77;;
10174;SDS011;18221;38.704;0.152;2023-12-20T05:53:48;1.70;;;1.60;;
10174;SDS011;18221;38.704;0.152;2023-12-20T05:56:16;2.37;;;1.90;;
10174;SDS011;18221;38.704;0.152;2023-12-20T05:58:44;2.23;;;1.70;;
10174;SDS011;18221;38.704;0.152;2023-12-20T06:01:14;1.93;;;1.60;;
10174;SDS011;18221;38.704;0.152;2023-12-20T06:03:43;2.70;;;1.77;;
10174;SDS011;18221;38.704;0.152;2023-12-20T06:06:12;1.73;;;1.63;;
10174;SDS011;18221;38.704;0.152;2023-12-20T06:08:41;1.67;;;1.40;;
10174;SDS011;18221;38.704;0.152;2023-12-20T06:11:10;1.67;;;1.57;;
10174;SDS011;18221;38.704;0.152;2023-12-20T06:13:38;2.47;;;1.80;;
10174;SDS011;18221;38.704;0.152;2023-12-20T06:16:06;2.17;;;1.50;;
10174;SDS011;18221;38.704;0.152;2023-12-20T06:18:34;2.03;;;1.30;;
10174;SDS011;18221;38.704;0.152;2023-12-20T06:21:03;2.80;;;1.60;;
10174;SDS011;18221;38.704;0.152;2023-12-20T06:23:34;1.40;;;1.30;;
10174;SDS011;18221;38.704;0.152;2023-12-20T06:26:02;2.00;;;1.47;;
10174;SDS011;18221;38.704;0.152;2023-12-20T06:28:30;1.60;;;1.50;;
10174;SDS011;18221;38.704;0.152;2023-12-20T06:30:58;2.30;;;1.60;;
10174;SDS011;18221;38.704;0.152;2023-12-20T06:33:26;1.70;;;1.60;;
10174;SDS011;18221;38.704;0.152;2023-12-20T06:35:54;2.80;;;1.40;;
10174;SDS011;18221;38.704;0.152;2023-12-20T06:38:22;4.37;;;2.00;;
10174;SDS011;18221;38.704;0.152;2023-12-20T06:40:52;1.43;;;1.33;;
10174;SDS011;18221;38.704;0.152;2023-12-20T06:43:22;3.30;;;1.50;;
10174;SDS011;18221;38.704;0.152;2023-12-20T06:45:50;2.63;;;1.47;;
10174;SDS011;18221;38.704;0.152;2023-12-20T06:48:18;6.33;;;1.53;;
10174;SDS011;18221;38.704;0.152;2023-12-20T06:50:46;1.87;;;1.50;;
10174;SDS011;18221;38.704;0.152;2023-12-20T06:53:14;2.37;;;1.47;;
10174;SDS011;18221;38.704;0.152;2023-12-20T06:55:42;2.17;;;1.53;;
10174;SDS011;18221;38.704;0.152;2023-12-20T06:58:12;1.50;;;1.40;;
10174;SDS011;18221;38.704;0.152;2023-12-20T07:00:40;2.17;;;1.47;;
10174;SDS011;18221;38.704;0.152;2023-12-20T07:03:09;1.93;;;1.40;;
10174;SDS011;18221;38.704;0.152;2023-12-20T07:05:37;2.90;;;1.50;;
10174;SDS011;18221;38.704;0.152;2023-12-20T07:08:06;3.87;;;1.57;;
10174;SDS011;18221;38.704;0.152;2023-12-20T07:10:34;1.77;;;1.40;;
10174;SDS011;18221;38.704;0.152;2023-12-20T07:13:02;5.20;;;1.50;;
10174;SDS011;18221;38.704;0.152;2023-12-20T07:15:31;5.17;;;1.50;;
10174;SDS011;18221;38.704;0.152;2023-12-20T07:18:01;1.73;;;1.40;;
10174;SDS011;18221;38.704;0.152;2023-12-20T07:20:29;1.73;;;1.37;;
10174;SDS011;18221;38.704;0.152;2023-12-20T07:22:57;4.27;;;1.50;;
10174;SDS011;18221;38.704;0.152;2023-12-20T07:25:25;5.13;;;1.87;;
10174;SDS011;18221;38.704;0.152;2023-12-20T07:27:53;5.43;;;1.80;;
10174;SDS011;18221;38.704;0.152;2023-12-20T07:30:21;4.03;;;2.70;;
10174;SDS011;18221;38.704;0.152;2023-12-20T07:32:51;2.20;;;2.00;;
10174;SDS011;18221;38.704;0.152;2023-12-20T07:35:19;3.83;;;1.70;;
10174;SDS011;18221;38.704;0.152;2023-12-20T07:37:47;1.97;;;1.57;;
10174;SDS011;18221;38.704;0.152;2023-12-20T07:40:15;3.23;;;1.70;;
10174;SDS011;18221;38.704;0.152;2023-12-20T07:42:43;1.80;;;1.53;;
10174;SDS011;18221;38.704;0.152;2023-12-20T07:45:11;5.07;;;1.70;;
10174;SDS011;18221;38.704;0.152;2023-12-20T07:47:39;3.57;;;1.53;;
10174;SDS011;18221;38.704;0.152;2023-12-20T07:50:08;2.43;;;1.40;;
10174;SDS011;18221;38.704;0.152;2023-12-20T07:52:36;2.13;;;1.63;;
10174;SDS011;18221;38.704;0.152;2023-12-20T07:55:05;3.87;;;1.53;;
10174;SDS011;18221;38.704;0.152;2023-12-20T07:57:34;5.47;;;1.87;;
10174;SDS011;18221;38.704;0.152;2023-12-20T08:00:02;3.40;;;1.50;;
10174;SDS011;18221;38.704;0.152;2023-12-20T08:02:31;3.63;;;1.70;;
10174;SDS011;18221;38.704;0.152;2023-12-20T08:04:59;3.30;;;1.53;;
10174;SDS011;18221;38.704;0.152;2023-12-20T08:07:29;4.50;;;1.70;;
10174;SDS011;18221;38.704;0.152;2023-12-20T08:09:57;4.57;;;1.37;;
10174;SDS011;18221;38.704;0.152;2023-12-20T08:12:25;4.00;;;1.50;;
10174;SDS011;18221;38.704;0.152;2023-12-20T08:14:54;3.10;;;1.30;;
10174;SDS011;18221;38.704;0.152;2023-12-20T08:17:22;3.07;;;1.57;;
10174;SDS011;18221;38.704;0.152;2023-12-20T08:19:50;1.97;;;1.37;;
10174;SDS011;18221;38.704;0.152;2023-12-20T08:22:18;2.90;;;1.40;;
10174;SDS011;18221;38.704;0.152;2023-12-20T08:24:47;2.73;;;1.40;;
10174;SDS011;18221;38.704;0.152;2023-12-20T08:27:15;2.90;;;1.40;;
10174;SDS011;18221;38.704;0.152;2023-12-20T08:29:43;2.27;;;1.40;;
10174;SDS011;18221;38.704;0.152;2023-12-20T08:32:11;1.90;;;1.40;;
10174;SDS011;18221;38.704;0.152;2023-12-20T08:34:39;1.37;;;1.10;;
10174;SDS011;18221;38.704;0.152;2023-12-20T08:37:07;1.40;;;1.30;;
10174;SDS011;18221;38.704;0.152;2023-12-20T08:39:37;2.17;;;1.40;;
10174;SDS011;18221;38.704;0.152;2023-12-20T08:42:06;1.70;;;1.30;;
10174;SDS011;18221;38.704;0.152;2023-12-20T08:44:34;3.10;;;1.40;;
10174;SDS011;18221;38.704;0.152;2023-12-20T08:47:05;4.23;;;1.50;;
10174;SDS011;18221;38.704;0.152;2023-12-20T08:49:33;2.33;;;1.10;;
10174;SDS011;18221;38.704;0.152;2023-12-20T08:52:01;3.53;;;1.50;;
10174;SDS011;18221;38.704;0.152;2023-12-20T08:54:29;2.90;;;1.37;;
10174;SDS011;18221;38.704;0.152;2023-12-20T08:56:57;2.43;;;1.30;;
10174;SDS011;18221;38.704;0.152;2023-12-20T08:59:27;2.93;;;1.40;;
10174;SDS011;18221;38.704;0.152;2023-12-20T09:01:55;2.40;;;1.30;;
10174;SDS011;18221;38.704;0.152;2023-12-20T09:04:23;1.40;;;1.30;;
10174;SDS011;18221;38.704;0.152;2023-12-20T09:06:51;2.43;;;1.40;;
10174;SDS011;18221;38.704;0.152;2023-12-20T09:09:19;2.20;;;1.37;;
10174;SDS011;18221;38.704;0.152;2023-12-20T09:11:47;3.93;;;1.40;;
10174;SDS011;18221;38.704;0.152;2023-12-20T09:14:16;1.40;;;1.30;;
10174;SDS011;18221;38.704;0.152;2023-12-20T09:16:46;2.97;;;1.40;;
10174;SDS011;18221;38.704;0.152;2023-12-20T09:19:16;1.67;;;1.37;;
10174;SDS011;18221;38.704;0.152;2023-12-20T09:21:44;1.33;;;1.23;;
10174;SDS011;18221;38.704;0.152;2023-12-20T09:24:12;3.83;;;1.27;;
10174;SDS011;18221;38.704;0.152;2023-12-20T09:26:40;1.43;;;1.23;;
10174;SDS011;18221;38.704;0.152;2023-12-20T09:29:09;1.27;;;1.17;;
10174;SDS011;18221;38.704;0.152;2023-12-20T09:31:40;1.60;;;1.30;;
10174;SDS011;18221;38.704;0.152;2023-12-20T09:34:10;1.63;;;1.40;;
10174;SDS011;18221;38.704;0.152;2023-12-20T09:36:38;1.50;;;1.40;;
10174;SDS011;18221;38.704;0.152;2023-12-20T09:39:11;1.97;;;1.40;;
10174;SDS011;18221;38.704;0.152;2023-12-20T09:41:41;1.43;;;1.10;;
10174;SDS011;18221;38.704;0.152;2023-12-20T09:44:13;1.77;;;1.20;;
10174;SDS011;18221;38.704;0.152;2023-12-20T09:46:46;1.43;;;1.27;;
10174;SDS011;18221;38.704;0.152;2023-12-20T09:49:19;1.30;;;1.20;;
10174;SDS011;18221;38.704;0.152;2023-12-20T09:51:47;1.40;;;1.10;;
10174;SDS011;18221;38.704;0.152;2023-12-20T09:54:18;1.40;;;1.20;;
10174;SDS011;18221;38.704;0.152;2023-12-20T09:56:47;2.00;;;1.13;;
10174;SDS011;18221;38.704;0.152;2023-12-20T09:59:15;1.60;;;1.20;;
10174;SDS011;18221;38.704;0.152;2023-12-20T10:01:44;1.20;;;1.10;;
10174;SDS011;18221;38.704;0.152;2023-12-20T10:04:13;3.10;;;1.30;;
10174;SDS011;18221;38.704;0.152;2023-12-20T10:06:43;2.50;;;1.33;;
10174;SDS011;18221;38.704;0.152;2023-12-20T10:09:12;2.33;;;1.50;;
10174;SDS011;18221;38.704;0.152;2023-12-20T10:11:40;1.77;;;1.43;;
10174;SDS011;18221;38.704;0.152;2023-12-20T10:14:10;1.67;;;1.20;;
10174;SDS011;18221;38.704;0.152;2023-12-20T10:16:38;1.23;;;1.13;;
10174;SDS011;18221;38.704;0.152;2023-12-20T10:19:07;1.30;;;1.20;;
10174;SDS011;18221;38.704;0.152;2023-12-20T10:21:35;1.17;;;1.07;;
10174;SDS011;18221;38.704;0.152;2023-12-20T10:24:05;1.33;;;1.10;;
10174;SDS011;18221;38.704;0.152;2023-12-20T10:26:33;1.17;;;1.03;;
10174;SDS011;18221;38.704;0.152;2023-12-20T10:29:03;2.03;;;1.20;;
10174;SDS011;18221;38.704;0.152;2023-12-20T10:31:33;4.13;;;1.30;;
10174;SDS011;18221;38.704;0.152;2023-12-20T10:34:04;1.73;;;1.20;;
10174;SDS011;18221;38.704;0.152;2023-12-20T10:36:32;1.43;;;1.27;;
10174;SDS011;18221;38.704;0.152;2023-12-20T10:39:01;1.30;;;1.20;;
10174;SDS011;18221;38.704;0.152;2023-12-20T10:41:33;1.40;;;1.30;;
10174;SDS011;18221;38.704;0.152;2023-12-20T10:44:06;2.53;;;1.40;;
10174;SDS011;18221;38.704;0.152;2023-12-20T10:46:37;3.50;;;1.50;;
10174;SDS011;18221;38.704;0.152;2023-12-20T10:49:13;2.37;;;1.50;;
10174;SDS011;18221;38.704;0.152;2023-12-20T10:51:44;1.30;;;1.20;;
10174;SDS011;18221;38.704;0.152;2023-12-20T10:54:16;2.70;;;1.40;;
10174;SDS011;18221;38.704;0.152;2023-12-20T10:56:45;1.60;;;1.50;;
10174;SDS011;18221;38.704;0.152;2023-12-20T10:59:13;2.10;;;1.47;;
10174;SDS011;18221;38.704;0.152;2023-12-20T11:01:47;2.70;;;1.47;;
10174;SDS011;18221;38.704;0.152;2023-12-20T11:04:18;3.10;;;1.43;;
10174;SDS011;18221;38.704;0.152;2023-12-20T11:06:56;1.50;;;1.10;;
10174;SDS011;18221;38.704;0.152;2023-12-20T11:09:37;1.20;;;1.10;;
10174;SDS011;18221;38.704;0.152;2023-12-20T11:12:17;1.20;;;1.10;;
10174;SDS011;18221;38.704;0.152;2023-12-20T11:14:55;3.07;;;1.20;;
10174;SDS011;18221;38.704;0.152;2023-12-20T11:17:29;1.80;;;1.10;;
10174;SDS011;18221;38.704;0.152;2023-12-20T11:20:06;2.90;;;1.30;;
10174;SDS011;18221;38.704;0.152;2023-12-20T11:22:39;2.27;;;1.27;;
10174;SDS011;18221;38.704;0.152;2023-12-20T11:25:21;1.50;;;1.20;;
10174;SDS011;18221;38.704;0.152;2023-12-20T11:30:42;1.30;;;1.10;;
10174;SDS011;18221;38.704;0.152;2023-12-20T11:33:14;2.13;;;1.30;;
10174;SDS011;18221;38.704;0.152;2023-12-20T11:35:42;1.60;;;1.13;;
10174;SDS011;18221;38.704;0.152;2023-12-20T11:38:14;2.00;;;1.43;;
10174;SDS011;18221;38.704;0.152;2023-12-20T11:40:48;1.20;;;1.10;;
10174;SDS011;18221;38.704;0.152;2023-12-20T11:43:29;1.53;;;1.30;;
10174;SDS011;18221;38.704;0.152;2023-12-20T11:46:05;1.87;;;1.30;;
10174;SDS011;18221;38.704;0.152;2023-12-20T11:48:35;3.20;;;1.20;;
10174;SDS011;18221;38.704;0.152;2023-12-20T11:51:09;1.40;;;1.30;;
10174;SDS011;18221;38.704;0.152;2023-12-20T11:53:37;1.47;;;1.30;;
10174;SDS011;18221;38.704;0.152;2023-12-20T11:56:07;3.70;;;1.30;;
10174;SDS011;18221;38.704;0.152;2023-12-20T11:58:36;1.87;;;1.20;;
10174;SDS011;18221;38.704;0.152;2023-12-20T12:01:04;4.50;;;1.27;;
10174;SDS011;18221;38.704;0.152;2023-12-20T12:03:33;1.53;;;1.40;;
10174;SDS011;18221;38.704;0.152;2023-12-20T12:06:01;1.70;;;1.40;;
10174;SDS011;18221;38.704;0.152;2023-12-20T12:08:30;1.60;;;1.40;;
10174;SDS011;18221;38.704;0.152;2023-12-20T12:10:58;2.00;;;1.50;;
10174;SDS011;18221;38.704;0.152;2023-12-20T12:13:28;2.37;;;1.60;;
10174;SDS011;18221;38.704;0.152;2023-12-20T12:15:56;3.10;;;1.60;;
10174;SDS011;18221;38.704;0.152;2023-12-20T12:18:25;2.37;;;1.60;;
10174;SDS011;18221;38.704;0.152;2023-12-20T12:20:59;2.10;;;1.60;;
10174;SDS011;18221;38.704;0.152;2023-12-20T12:23:28;1.83;;;1.60;;
10174;SDS011;18221;38.704;0.152;2023-12-20T12:25:56;2.37;;;1.90;;
10174;SDS011;18221;38.704;0.152;2023-12-20T12:28:25;1.83;;;1.60;;
10174;SDS011;18221;38.704;0.152;2023-12-20T12:30:57;2.00;;;1.80;;
10174;SDS011;18221;38.704;0.152;2023-12-20T12:33:25;2.53;;;1.60;;
10174;SDS011;18221;38.704;0.152;2023-12-20T12:35:54;4.23;;;2.10;;
10174;SDS011;18221;38.704;0.152;2023-12-20T12:38:22;2.60;;;2.00;;
10174;SDS011;18221;38.704;0.152;2023-12-20T12:40:51;2.10;;;1.80;;
10174;SDS011;18221;38.704;0.152;2023-12-20T12:43:20;2.50;;;2.00;;
10174;SDS011;18221;38.704;0.152;2023-12-20T12:45:50;2.30;;;1.90;;
10174;SDS011;18221;38.704;0.152;2023-12-20T12:48:20;2.37;;;2.00;;
10174;SDS011;18221;38.704;0.152;2023-12-20T12:50:48;2.73;;;2.23;;
10174;SDS011;18221;38.704;0.152;2023-12-20T12:53:18;2.57;;;2.13;;
10174;SDS011;18221;38.704;0.152;2023-12-20T12:55:46;2.77;;;2.10;;
10174;SDS011;18221;38.704;0.152;2023-12-20T12:58:14;2.53;;;2.20;;
10174;SDS011;18221;38.704;0.152;2023-12-20T13:00:42;4.20;;;2.40;;
10174;SDS011;18221;38.704;0.152;2023-12-20T13:03:11;3.17;;;1.87;;
10174;SDS011;18221;38.704;0.152;2023-12-20T13:05:40;2.77;;;1.97;;
10174;SDS011;18221;38.704;0.152;2023-12-20T13:08:08;1.97;;;1.67;;
10174;SDS011;18221;38.704;0.152;2023-12-20T13:10:37;2.23;;;1.90;;
10174;SDS011;18221;38.704;0.152;2023-12-20T13:13:05;2.93;;;1.87;;
10174;SDS011;18221;38.704;0.152;2023-12-20T13:15:34;2.37;;;1.53;;
10174;SDS011;18221;38.704;0.152;2023-12-20T13:18:03;1.80;;;1.50;;
10174;SDS011;18221;38.704;0.152;2023-12-20T13:20:33;1.47;;;1.37;;
10174;SDS011;18221;38.704;0.152;2023-12-20T13:23:01;1.30;;;1.20;;
10174;SDS011;18221;38.704;0.152;2023-12-20T13:25:29;1.70;;;1.40;;
10174;SDS011;18221;38.704;0.152;2023-12-20T13:27:58;1.37;;;1.27;;
10174;SDS011;18221;38.704;0.152;2023-12-20T13:30:28;1.43;;;1.30;;
10174;SDS011;18221;38.704;0.152;2023-12-20T13:32:58;1.53;;;1.20;;
10174;SDS011;18221;38.704;0.152;2023-12-20T13:35:26;2.43;;;1.37;;
10174;SDS011;18221;38.704;0.152;2023-12-20T13:37:56;2.10;;;1.40;;
10174;SDS011;18221;38.704;0.152;2023-12-20T13:40:24;1.40;;;1.30;;
10174;SDS011;18221;38.704;0.152;2023-12-20T13:42:53;2.33;;;1.30;;
10174;SDS011;18221;38.704;0.152;2023-12-20T13:45:21;2.03;;;1.60;;
10174;SDS011;18221;38.704;0.152;2023-12-20T13:47:50;1.73;;;1.63;;
10174;SDS011;18221;38.704;0.152;2023-12-20T13:50:18;2.30;;;1.50;;
10174;SDS011;18221;38.704;0.152;2023-12-20T13:52:47;3.60;;;1.47;;
10174;SDS011;18221;38.704;0.152;2023-12-20T13:55:16;1.87;;;1.40;;
10174;SDS011;18221;38.704;0.152;2023-12-20T13:57:47;1.87;;;1.40;;
10174;SDS011;18221;38.704;0.152;2023-12-20T14:00:15;1.47;;;1.37;;
10174;SDS011;18221;38.704;0.152;2023-12-20T14:02:44;1.40;;;1.30;;
10174;SDS011;18221;38.704;0.152;2023-12-20T14:05:13;1.13;;;1.03;;
10174;SDS011;18221;38.704;0.152;2023-12-20T14:07:43;1.33;;;1.20;;
10174;SDS011;18221;38.704;0.152;2023-12-20T14:10:11;1.10;;;1.07;;
10174;SDS011;18221;38.704;0.152;2023-12-20T14:12:41;3.40;;;1.30;;
10174;SDS011;18221;38.704;0.152;2023-12-20T14:15:10;2.07;;;1.60;;
10174;SDS011;18221;38.704;0.152;2023-12-20T14:17:39;2.23;;;1.40;;
10174;SDS011;18221;38.704;0.152;2023-12-20T14:20:08;2.17;;;1.60;;
10174;SDS011;18221;38.704;0.152;2023-12-20T14:22:38;1.90;;;1.60;;
10174;SDS011;18221;38.704;0.152;2023-12-20T14:25:10;6.33;;;1.80;;
10174;SDS011;18221;38.704;0.152;2023-12-20T14:27:43;3.93;;;1.60;;
10174;SDS011;18221;38.704;0.152;2023-12-20T14:30:12;3.30;;;1.53;;
10174;SDS011;18221;38.704;0.152;2023-12-20T14:32:42;2.67;;;1.40;;
10174;SDS011;18221;38.704;0.152;2023-12-20T14:35:11;1.73;;;1.50;;
10174;SDS011;18221;38.704;0.152;2023-12-20T14:37:39;2.37;;;1.50;;
10174;SDS011;18221;38.704;0.152;2023-12-20T14:40:08;3.90;;;1.50;;
10174;SDS011;18221;38.704;0.152;2023-12-20T14:42:40;2.47;;;1.40;;
10174;SDS011;18221;38.704;0.152;2023-12-20T14:45:10;1.70;;;1.30;;
10174;SDS011;18221;38.704;0.152;2023-12-20T14:47:39;1.37;;;1.23;;
10174;SDS011;18221;38.704;0.152;2023-12-20T14:50:07;4.33;;;1.90;;
10174;SDS011;18221;38.704;0.152;2023-12-20T14:52:37;5.87;;;2.47;;
10174;SDS011;18221;38.704;0.152;2023-12-20T14:55:05;3.80;;;1.93;;
10174;SDS011;18221;38.704;0.152;2023-12-20T14:57:34;1.50;;;1.40;;
10174;SDS011;18221;38.704;0.152;2023-12-20T15:00:04;2.00;;;1.60;;
10174;SDS011;18221;38.704;0.152;2023-12-20T15:02:33;3.50;;;1.60;;
10174;SDS011;18221;38.704;0.152;2023-12-20T15:05:01;2.03;;;1.30;;
10174;SDS011;18221;38.704;0.152;2023-12-20T15:07:30;2.90;;;1.60;;
10174;SDS011;18221;38.704;0.152;2023-12-20T15:09:58;2.13;;;1.53;;
10174;SDS011;18221;38.704;0.152;2023-12-20T15:12:26;4.23;;;1.87;;
10174;SDS011;18221;38.704;0.152;2023-12-20T15:14:54;4.37;;;1.50;;